Fort Walton Beach, Florida
Current Conditions -  °F | °C
As of 1:56 PM on Friday 24 Oct 2014 (Local Time) from KQBL Reporting Station
Clear Clear  
Wind Chill: 75°   Ceiling: Unl
Heat Index: 75°   Visibility: 10mi
Dew Point: 50°   Wind: 5mph
Humidity: 42%   Direction: NA
Pressure: 30.01"   Gusts: NA
Location:  30.4°N, 86.61°W
Report Text: KQBL 241856Z AUTO VRB04KT 10SM CLR 24/10 A3001 RMK AO2 SLP169 T02370099
Loading
Personal Weather Stations






























Interactive Weather Map New forecast layout! Learn more

10-Day Weather Forecast

Advertisements
Track Severe Weather on mobile